Time;durP1;ratioP1;P1;durP2;ratioP2;P2;SDS_P1;SDS_P2;PMS_P1;PMS_P2;Temp;Humidity;BMP_temperature;BMP_pressure;BME280_temperature;BME280_humidity;BME280_pressure;Samples;Min_cycle;Max_cycle;Signal;HPM_P1;HPM_P2
2021/06/24 00:00:54;;;;;;;3.80;3.40;;;18.20;99.90;;;;;;5126679;28;20246;-74
2021/06/24 00:03:21;;;;;;;4.60;3.17;;;18.20;99.90;;;;;;5125417;28;20274;-73
2021/06/24 00:05:48;;;;;;;5.23;3.60;;;18.20;99.90;;;;;;5125551;28;20262;-73
2021/06/24 00:08:14;;;;;;;9.63;4.00;;;18.20;99.90;;;;;;5125282;28;20244;-73
2021/06/24 00:10:43;;;;;;;5.53;3.70;;;18.20;99.90;;;;;;5125217;28;20201;-73
2021/06/24 00:13:10;;;;;;;5.67;3.77;;;18.20;99.90;;;;;;5126042;28;20225;-74
2021/06/24 00:15:39;;;;;;;4.33;3.47;;;18.20;99.90;;;;;;5126004;27;20652;-74
2021/06/24 00:18:06;;;;;;;5.43;3.60;;;18.20;99.90;;;;;;5126246;27;20277;-72
2021/06/24 00:20:33;;;;;;;5.10;3.67;;;18.20;99.90;;;;;;5126307;27;20753;-72
2021/06/24 00:22:59;;;;;;;7.73;3.60;;;18.20;99.90;;;;;;5125800;27;20727;-72
2021/06/24 00:25:26;;;;;;;4.67;3.60;;;18.20;99.90;;;;;;5126084;27;20233;-72
2021/06/24 00:27:53;;;;;;;5.27;3.63;;;18.20;99.90;;;;;;5126238;27;20271;-72
2021/06/24 00:30:20;;;;;;;3.80;3.50;;;18.20;99.90;;;;;;5125891;27;20204;-72
2021/06/24 00:32:48;;;;;;;3.90;3.40;;;18.20;99.90;;;;;;5126076;27;20357;-74
2021/06/24 00:35:15;;;;;;;4.03;3.57;;;18.10;99.90;;;;;;5126060;27;20637;-74
2021/06/24 00:37:42;;;;;;;5.80;3.63;;;18.10;99.90;;;;;;5125940;27;20282;-74
2021/06/24 00:40:11;;;;;;;5.10;3.40;;;18.10;99.90;;;;;;5125802;28;20205;-73
2021/06/24 00:42:38;;;;;;;3.47;3.17;;;18.10;99.90;;;;;;5126244;27;20228;-73
2021/06/24 00:45:06;;;;;;;4.17;3.10;;;18.10;99.90;;;;;;5125623;27;20206;-73
2021/06/24 00:47:33;;;;;;;3.90;3.37;;;18.10;99.90;;;;;;5124821;27;20234;-73
2021/06/24 00:50:01;;;;;;;5.27;3.47;;;18.10;99.90;;;;;;5125580;27;20215;-73
2021/06/24 00:52:28;;;;;;;4.47;3.37;;;18.20;99.90;;;;;;5125928;27;20205;-73
2021/06/24 00:54:56;;;;;;;4.20;3.90;;;18.10;99.90;;;;;;5125607;27;20206;-73
2021/06/24 00:57:23;;;;;;;5.87;3.73;;;18.10;99.90;;;;;;5125109;27;20302;-75
2021/06/24 00:59:49;;;;;;;4.37;3.17;;;18.10;99.90;;;;;;5125543;27;20258;-73
2021/06/24 01:02:16;;;;;;;5.73;3.57;;;18.10;99.90;;;;;;5125338;27;20222;-72
2021/06/24 01:04:43;;;;;;;5.87;4.00;;;18.10;99.90;;;;;;5125537;27;20231;-72
2021/06/24 01:07:11;;;;;;;6.97;3.53;;;18.10;99.90;;;;;;5125077;27;20606;-72
2021/06/24 01:09:38;;;;;;;5.70;3.80;;;18.00;99.90;;;;;;5112266;27;20259;-73
2021/06/24 01:12:07;;;;;;;3.70;3.40;;;18.10;99.90;;;;;;5111572;28;20218;-72
2021/06/24 01:14:34;;;;;;;6.70;3.87;;;18.10;99.90;;;;;;5111209;28;20210;-72
2021/06/24 01:17:00;;;;;;;6.70;3.80;;;18.10;99.90;;;;;;5111352;28;20298;-72
2021/06/24 01:19:27;;;;;;;7.37;3.60;;;18.00;99.90;;;;;;5111576;28;20255;-71
2021/06/24 01:21:54;;;;;;;4.87;4.00;;;18.00;99.90;;;;;;5111281;28;20203;-71
2021/06/24 01:24:22;;;;;;;4.67;3.80;;;18.00;99.90;;;;;;5111510;28;20221;-71
2021/06/24 01:26:49;;;;;;;4.90;4.40;;;18.00;99.90;;;;;;5111474;28;20231;-72
2021/06/24 01:29:16;;;;;;;6.47;3.83;;;18.00;99.90;;;;;;5111311;28;20259;-72
2021/06/24 01:31:43;;;;;;;5.20;4.23;;;18.00;99.90;;;;;;5111413;28;20202;-72
2021/06/24 01:34:12;;;;;;;5.10;4.07;;;18.00;99.90;;;;;;5110982;28;20255;-73
2021/06/24 01:36:39;;;;;;;6.63;4.20;;;18.00;99.90;;;;;;5111237;27;20210;-74
2021/06/24 01:39:08;;;;;;;9.57;4.60;;;18.00;99.90;;;;;;5110989;28;20251;-73
2021/06/24 01:41:36;;;;;;;6.30;4.17;;;18.00;99.90;;;;;;5111254;28;20264;-73
2021/06/24 01:44:04;;;;;;;6.07;4.40;;;18.00;99.90;;;;;;5110713;28;20206;-72
2021/06/24 01:46:31;;;;;;;6.17;4.20;;;18.00;99.90;;;;;;5111020;28;20222;-73
2021/06/24 01:48:58;;;;;;;4.87;4.10;;;18.00;99.90;;;;;;5111069;28;20206;-73
2021/06/24 01:51:24;;;;;;;4.70;4.30;;;18.00;99.90;;;;;;5110735;28;20210;-73
2021/06/24 01:53:52;;;;;;;4.10;3.80;;;18.00;99.90;;;;;;5110665;28;20203;-73
2021/06/24 01:56:18;;;;;;;6.07;4.70;;;18.00;99.90;;;;;;5110425;28;20306;-73
2021/06/24 01:58:46;;;;;;;4.67;4.17;;;18.00;99.90;;;;;;5110627;27;20226;-74
2021/06/24 02:01:14;;;;;;;5.20;4.27;;;18.00;99.90;;;;;;5110339;28;20545;-74
2021/06/24 02:03:41;;;;;;;9.27;4.47;;;17.90;99.90;;;;;;5110955;28;20303;-75
2021/06/24 02:06:07;;;;;;;5.80;4.50;;;18.00;99.90;;;;;;5110417;28;20206;-74
2021/06/24 02:08:36;;;;;;;4.50;4.10;;;17.90;99.90;;;;;;5110650;27;20656;-73
2021/06/24 02:11:04;;;;;;;6.13;4.30;;;17.90;99.90;;;;;;5110050;28;20206;-73
2021/06/24 02:13:32;;;;;;;5.67;4.17;;;17.90;99.90;;;;;;5110453;28;20206;-73
2021/06/24 02:16:00;;;;;;;5.37;4.20;;;17.90;99.90;;;;;;5110462;28;20202;-73
2021/06/24 02:18:27;;;;;;;7.23;4.33;;;17.90;99.90;;;;;;5110223;28;20283;-73
2021/06/24 02:20:53;;;;;;;7.40;4.10;;;17.90;99.90;;;;;;5109450;28;20256;-73
2021/06/24 02:23:20;;;;;;;7.43;3.93;;;17.80;99.90;;;;;;5110499;28;20256;-75
2021/06/24 02:25:47;;;;;;;6.50;4.00;;;17.80;99.90;;;;;;5110318;27;20260;-74
2021/06/24 02:28:13;;;;;;;5.47;4.10;;;17.80;99.90;;;;;;5110116;28;20262;-74
2021/06/24 02:30:40;;;;;;;4.53;3.73;;;17.80;99.90;;;;;;5110035;28;20611;-74
2021/06/24 02:33:10;;;;;;;4.27;3.77;;;17.80;99.90;;;;;;5109983;28;20206;-73
2021/06/24 02:35:37;;;;;;;8.60;4.00;;;17.80;99.90;;;;;;5109704;28;20725;-73
2021/06/24 02:38:08;;;;;;;4.30;4.00;;;17.80;99.90;;;;;;5109879;28;20265;-73
2021/06/24 02:40:35;;;;;;;5.07;3.70;;;17.90;99.90;;;;;;5110069;28;20204;-73
2021/06/24 02:43:01;;;;;;;4.00;3.60;;;17.90;99.90;;;;;;5109823;28;20664;-72
2021/06/24 02:45:28;;;;;;;6.47;4.10;;;17.90;99.90;;;;;;5109767;28;20206;-73
2021/06/24 02:47:54;;;;;;;4.10;3.80;;;17.90;99.90;;;;;;5109790;28;20311;-75
2021/06/24 02:50:23;;;;;;;4.73;4.13;;;17.90;99.90;;;;;;5109456;28;20596;-76
2021/06/24 02:52:50;;;;;;;5.40;3.73;;;17.80;99.90;;;;;;5109820;28;20217;-76
2021/06/24 02:55:16;;;;;;;4.13;3.70;;;17.80;99.90;;;;;;5109592;28;20220;-76
2021/06/24 02:57:45;;;;;;;5.00;3.87;;;17.80;99.90;;;;;;5109226;28;20249;-74
2021/06/24 03:00:13;;;;;;;5.73;4.10;;;17.80;99.90;;;;;;5109279;28;20619;-74
2021/06/24 03:02:41;;;;;;;5.00;4.33;;;17.80;99.90;;;;;;5110138;28;20235;-74
2021/06/24 03:05:09;;;;;;;5.93;3.77;;;17.90;99.90;;;;;;5106716;28;20263;-72
2021/06/24 03:07:37;;;;;;;4.37;3.97;;;17.80;99.90;;;;;;5097413;28;20203;-72
2021/06/24 03:10:05;;;;;;;4.77;4.00;;;17.80;99.90;;;;;;5099109;28;20322;-72
2021/06/24 03:12:32;;;;;;;5.57;3.97;;;17.80;99.90;;;;;;5108182;28;20218;-73
2021/06/24 03:14:59;;;;;;;4.33;3.90;;;17.80;99.90;;;;;;5097467;28;20199;-73
2021/06/24 03:17:25;;;;;;;4.20;3.70;;;17.80;99.90;;;;;;5098617;28;20657;-73
2021/06/24 03:19:52;;;;;;;4.77;4.30;;;17.70;99.90;;;;;;5100029;28;20252;-72
2021/06/24 03:22:19;;;;;;;7.70;4.07;;;17.70;99.90;;;;;;5107207;28;20208;-72
2021/06/24 03:24:47;;;;;;;6.53;4.30;;;17.70;99.90;;;;;;5107364;28;20740;-72
2021/06/24 03:27:13;;;;;;;8.70;4.50;;;17.70;99.90;;;;;;5107103;28;20728;-72
2021/06/24 03:29:40;;;;;;;4.47;4.03;;;17.80;99.90;;;;;;5106926;28;20214;-72
2021/06/24 03:32:07;;;;;;;4.77;3.90;;;17.80;99.90;;;;;;5106126;28;20692;-72
2021/06/24 03:34:36;;;;;;;4.30;3.90;;;17.70;99.90;;;;;;5106651;28;20287;-73
2021/06/24 03:37:02;;;;;;;7.50;4.10;;;17.80;99.90;;;;;;5106577;28;20231;-73
2021/06/24 03:39:29;;;;;;;7.90;4.13;;;17.70;99.90;;;;;;5106292;28;20275;-74
2021/06/24 03:41:57;;;;;;;6.87;4.47;;;17.70;99.90;;;;;;5106210;28;20206;-73
2021/06/24 03:44:24;;;;;;;6.37;4.57;;;17.70;99.90;;;;;;5105956;28;20206;-73
2021/06/24 03:46:50;;;;;;;7.70;4.93;;;17.70;99.90;;;;;;5106185;28;20226;-74
2021/06/24 03:49:17;;;;;;;5.53;5.00;;;17.50;99.90;;;;;;5106199;28;20270;-73
2021/06/24 03:51:44;;;;;;;6.20;4.90;;;17.30;99.90;;;;;;5106493;28;20206;-73
2021/06/24 03:54:11;;;;;;;6.40;5.10;;;17.30;99.90;;;;;;5106462;28;20206;-73
2021/06/24 03:56:37;;;;;;;7.47;5.33;;;17.20;99.90;;;;;;5106148;28;20539;-73
2021/06/24 03:59:05;;;;;;;6.43;5.70;;;17.30;99.90;;;;;;5102846;28;20234;-74
2021/06/24 04:01:32;;;;;;;8.70;6.30;;;17.20;99.90;;;;;;5101379;28;20195;-74
2021/06/24 04:03:58;;;;;;;9.43;6.03;;;17.10;99.90;;;;;;5101429;28;20205;-74
2021/06/24 04:06:25;;;;;;;8.73;5.67;;;17.20;99.90;;;;;;5095593;28;20279;-74
2021/06/24 04:08:52;;;;;;;12.43;5.93;;;17.20;99.90;;;;;;5097539;28;20698;-72
2021/06/24 04:11:18;;;;;;;10.53;5.60;;;17.10;99.90;;;;;;5098843;27;20218;-73
2021/06/24 04:13:45;;;;;;;9.87;5.87;;;17.20;99.90;;;;;;5095796;28;20366;-73
2021/06/24 04:16:13;;;;;;;7.13;5.40;;;17.20;99.90;;;;;;5096488;28;20210;-73
2021/06/24 04:18:40;;;;;;;7.40;5.30;;;17.30;99.90;;;;;;5098294;28;20299;-73
2021/06/24 04:21:06;;;;;;;7.60;5.00;;;17.40;99.90;;;;;;5096162;28;20252;-73
2021/06/24 04:23:33;;;;;;;6.17;5.20;;;17.40;99.90;;;;;;5097702;28;20330;-74
2021/06/24 04:26:00;;;;;;;8.80;5.50;;;17.50;99.90;;;;;;5096507;28;20252;-73
2021/06/24 04:28:26;;;;;;;8.47;5.80;;;17.50;99.90;;;;;;5095039;28;20251;-73
2021/06/24 04:30:54;;;;;;;8.40;5.50;;;17.60;99.90;;;;;;5099631;28;20229;-73
2021/06/24 04:33:22;;;;;;;7.87;5.70;;;17.50;99.90;;;;;;5098999;28;20202;-73
2021/06/24 04:35:48;;;;;;;12.03;6.23;;;17.40;99.90;;;;;;5097502;28;20198;-73
2021/06/24 04:38:15;;;;;;;7.07;5.23;;;17.40;99.90;;;;;;5094032;28;20845;-73
2021/06/24 04:40:42;;;;;;;7.80;6.07;;;17.40;99.90;;;;;;5096365;28;20286;-74
2021/06/24 04:43:09;;;;;;;8.87;5.87;;;17.30;99.90;;;;;;5099728;28;20199;-73
2021/06/24 04:45:36;;;;;;;7.60;6.33;;;17.20;99.90;;;;;;5099756;28;20203;-73
2021/06/24 04:48:03;;;;;;;7.13;5.80;;;17.30;99.90;;;;;;5097144;28;20206;-73
2021/06/24 04:50:31;;;;;;;9.87;5.40;;;17.30;99.90;;;;;;5100991;28;20195;-73
2021/06/24 04:52:57;;;;;;;10.60;5.37;;;17.30;99.90;;;;;;5099760;28;20195;-74
2021/06/24 04:55:27;;;;;;;9.60;5.63;;;17.40;99.90;;;;;;5098136;28;20194;-73
2021/06/24 04:57:53;;;;;;;8.40;5.23;;;17.50;99.90;;;;;;5099044;28;20236;-73
2021/06/24 05:00:21;;;;;;;9.03;5.57;;;17.50;99.90;;;;;;5102321;28;20217;-73
2021/06/24 05:02:48;;;;;;;8.57;5.80;;;17.50;99.90;;;;;;5102594;28;20200;-73
2021/06/24 05:05:14;;;;;;;8.90;6.17;;;17.40;99.90;;;;;;5100827;28;20194;-73
2021/06/24 05:07:43;;;;;;;7.93;5.83;;;17.30;99.90;;;;;;5102601;28;20198;-74
2021/06/24 05:10:11;;;;;;;8.93;5.97;;;17.20;99.90;;;;;;5100260;28;20725;-74
2021/06/24 05:12:38;;;;;;;13.40;6.37;;;17.30;99.90;;;;;;5092189;28;20279;-76
2021/06/24 05:15:06;;;;;;;8.37;5.43;;;17.40;99.90;;;;;;5108397;28;20588;-74
2021/06/24 05:17:33;;;;;;;7.77;5.77;;;17.40;99.90;;;;;;5102269;28;20729;-74
2021/06/24 05:20:00;;;;;;;9.03;5.40;;;17.40;99.90;;;;;;5101607;28;20639;-74
2021/06/24 05:22:27;;;;;;;7.30;5.90;;;17.40;99.90;;;;;;5098877;28;20206;-74
2021/06/24 05:24:55;;;;;;;7.27;5.27;;;17.40;99.90;;;;;;5101818;28;20244;-73
2021/06/24 05:27:22;;;;;;;11.10;5.80;;;17.50;99.90;;;;;;5099294;28;20678;-74
2021/06/24 05:29:49;;;;;;;9.53;5.80;;;17.50;99.90;;;;;;5102036;27;20680;-73
2021/06/24 05:32:16;;;;;;;8.83;6.30;;;17.50;99.90;;;;;;5099161;27;20209;-74
2021/06/24 05:34:42;;;;;;;9.83;6.10;;;17.40;99.90;;;;;;5100696;27;20671;-74
2021/06/24 05:37:09;;;;;;;9.43;5.70;;;17.40;99.90;;;;;;5097428;28;20248;-74
2021/06/24 05:39:35;;;;;;;12.43;5.30;;;17.50;99.90;;;;;;5101691;27;20226;-74
2021/06/24 05:42:04;;;;;;;7.40;5.80;;;17.50;99.90;;;;;;5100477;28;20202;-74
2021/06/24 05:44:31;;;;;;;5.50;5.00;;;17.50;99.90;;;;;;5098031;28;20604;-74
2021/06/24 05:47:00;;;;;;;8.53;6.13;;;17.60;99.90;;;;;;5098183;28;20695;-74
2021/06/24 05:49:27;;;;;;;8.03;5.30;;;17.60;99.90;;;;;;5098264;28;20260;-74
2021/06/24 05:51:53;;;;;;;7.27;5.20;;;17.60;99.90;;;;;;5098514;28;20291;-73
2021/06/24 05:54:20;;;;;;;6.47;5.47;;;17.60;99.90;;;;;;5103059;28;20228;-73
2021/06/24 05:56:46;;;;;;;8.30;5.70;;;17.50;99.90;;;;;;5099254;28;20261;-73
2021/06/24 05:59:14;;;;;;;8.90;5.97;;;17.60;99.90;;;;;;5098002;28;20288;-74
2021/06/24 06:01:43;;;;;;;8.00;5.10;;;17.60;99.90;;;;;;5098559;28;20272;-73
2021/06/24 06:04:10;;;;;;;11.00;5.57;;;17.70;99.90;;;;;;5106029;28;20205;-74
2021/06/24 06:06:36;;;;;;;11.27;6.60;;;17.70;99.90;;;;;;5106432;28;20202;-74
2021/06/24 06:09:03;;;;;;;11.03;6.60;;;17.70;99.90;;;;;;5098743;28;20672;-73
2021/06/24 06:11:29;;;;;;;9.70;6.53;;;17.70;99.90;;;;;;5097752;28;20223;-73
2021/06/24 06:13:56;;;;;;;9.80;6.30;;;17.80;99.90;;;;;;5089918;28;20402;-73
2021/06/24 06:16:24;;;;;;;9.63;6.37;;;17.80;99.90;;;;;;5089783;28;20635;-73
2021/06/24 06:18:52;;;;;;;8.87;6.47;;;17.90;99.90;;;;;;5089916;28;20275;-73
2021/06/24 06:21:19;;;;;;;10.70;6.73;;;18.00;99.90;;;;;;5089734;28;20294;-73
2021/06/24 06:23:45;;;;;;;13.40;7.00;;;17.90;99.90;;;;;;5089926;28;20207;-73
2021/06/24 06:26:12;;;;;;;9.87;6.53;;;18.10;99.90;;;;;;5089865;28;20691;-73
2021/06/24 06:28:39;;;;;;;12.53;6.77;;;18.10;99.90;;;;;;5105754;28;20704;-73
2021/06/24 06:31:06;;;;;;;9.80;7.10;;;18.10;99.90;;;;;;5109895;28;20206;-73
2021/06/24 06:33:34;;;;;;;10.50;7.13;;;18.10;99.90;;;;;;5109443;27;20687;-73
2021/06/24 06:36:01;;;;;;;11.50;7.23;;;18.10;99.90;;;;;;5109928;28;20202;-73
2021/06/24 06:38:28;;;;;;;10.13;7.00;;;18.10;99.90;;;;;;5109691;28;20233;-73
2021/06/24 06:40:54;;;;;;;9.30;7.30;;;18.10;99.90;;;;;;5105228;28;20252;-73
2021/06/24 06:43:21;;;;;;;11.27;7.83;;;18.20;99.90;;;;;;5090466;28;20214;-74
2021/06/24 06:45:48;;;;;;;16.20;8.00;;;18.20;99.90;;;;;;5109633;28;20226;-75
2021/06/24 06:48:15;;;;;;;11.87;8.17;;;18.20;99.90;;;;;;5109294;28;20664;-73
2021/06/24 06:50:44;;;;;;;13.23;8.23;;;18.30;99.90;;;;;;5109536;27;20206;-72
2021/06/24 06:53:11;;;;;;;14.33;7.70;;;18.30;99.90;;;;;;5104437;27;20224;-72
2021/06/24 06:55:38;;;;;;;12.53;8.40;;;18.30;99.90;;;;;;5103751;28;20275;-73
2021/06/24 06:58:05;;;;;;;12.27;8.93;;;18.30;99.90;;;;;;5109159;28;20322;-73
2021/06/24 07:00:33;;;;;;;9.23;8.13;;;18.40;99.90;;;;;;5109178;28;20282;-73
2021/06/24 07:03:01;;;;;;;11.27;9.27;;;18.40;99.90;;;;;;5109350;28;20206;-73
2021/06/24 07:05:28;;;;;;;11.97;8.57;;;18.40;99.90;;;;;;5109173;28;20225;-73
2021/06/24 07:07:56;;;;;;;14.27;8.90;;;18.40;99.90;;;;;;5108976;28;20213;-73
2021/06/24 07:10:23;;;;;;;12.80;8.93;;;18.40;99.90;;;;;;5109078;28;20283;-73
2021/06/24 07:12:50;;;;;;;11.53;8.63;;;18.40;99.90;;;;;;5108885;28;20259;-73
2021/06/24 07:15:17;;;;;;;12.67;9.53;;;18.30;99.90;;;;;;5108996;28;20198;-73
2021/06/24 07:17:44;;;;;;;9.97;8.77;;;18.20;99.90;;;;;;5109242;28;20198;-73
2021/06/24 07:20:12;;;;;;;13.43;9.60;;;18.20;99.90;;;;;;5108568;28;20365;-73
2021/06/24 07:22:39;;;;;;;12.77;9.50;;;18.20;99.90;;;;;;5099478;28;20565;-75
2021/06/24 07:25:09;;;;;;;14.67;9.50;;;18.20;99.90;;;;;;5098581;28;20202;-76
2021/06/24 07:27:36;;;;;;;9.73;8.77;;;18.30;99.90;;;;;;5095696;27;20628;-74
2021/06/24 07:30:04;;;;;;;11.00;8.53;;;18.40;99.90;;;;;;5101919;27;20423;-74
2021/06/24 07:32:30;;;;;;;12.07;8.70;;;18.40;99.90;;;;;;5099762;28;20217;-74
2021/06/24 07:34:57;;;;;;;11.13;9.20;;;18.40;99.90;;;;;;5109226;28;20275;-74
2021/06/24 07:37:24;;;;;;;9.90;8.87;;;18.40;99.90;;;;;;5107211;28;20266;-74
2021/06/24 07:39:51;;;;;;;13.40;8.80;;;18.40;99.90;;;;;;5108718;28;20269;-74
2021/06/24 07:42:20;;;;;;;14.47;9.43;;;18.30;99.90;;;;;;5108880;28;20251;-74
2021/06/24 07:44:47;;;;;;;10.50;8.23;;;18.30;99.90;;;;;;5108733;28;20300;-74
2021/06/24 07:47:14;;;;;;;13.10;9.47;;;18.30;99.90;;;;;;5108386;28;20763;-74
2021/06/24 07:49:40;;;;;;;9.73;8.20;;;18.40;99.90;;;;;;5108750;28;20197;-74
2021/06/24 07:52:07;;;;;;;14.70;9.33;;;18.50;99.90;;;;;;5108934;28;20283;-74
2021/06/24 07:54:34;;;;;;;9.67;8.57;;;18.40;99.90;;;;;;5108593;28;20543;-74
2021/06/24 07:57:00;;;;;;;10.50;9.30;;;18.30;99.90;;;;;;5108413;28;20299;-74
2021/06/24 07:59:28;;;;;;;10.97;9.67;;;18.40;99.90;;;;;;5108372;28;20637;-74
2021/06/24 08:01:55;;;;;;;11.80;9.30;;;18.30;99.90;;;;;;5108700;28;20286;-74
2021/06/24 08:04:21;;;;;;;11.03;9.93;;;18.30;99.90;;;;;;5108433;28;20213;-74
2021/06/24 08:06:48;;;;;;;11.67;9.40;;;18.30;99.90;;;;;;5108591;28;20209;-74
2021/06/24 08:09:15;;;;;;;11.73;9.60;;;18.50;99.90;;;;;;5108505;28;20208;-74
2021/06/24 08:11:41;;;;;;;12.13;10.53;;;18.60;99.90;;;;;;5108633;28;20225;-74
2021/06/24 08:14:08;;;;;;;15.83;10.20;;;18.60;99.90;;;;;;5108525;28;20206;-73
2021/06/24 08:16:36;;;;;;;16.03;10.63;;;18.70;99.90;;;;;;5108230;28;20672;-74
2021/06/24 08:19:03;;;;;;;11.67;10.40;;;18.70;99.90;;;;;;5110633;28;20232;-74
2021/06/24 08:21:30;;;;;;;11.63;10.10;;;18.70;99.90;;;;;;5112331;28;20781;-74
2021/06/24 08:23:57;;;;;;;14.20;10.57;;;18.70;99.90;;;;;;5112560;28;20484;-74
2021/06/24 08:26:24;;;;;;;12.87;10.50;;;18.70;99.90;;;;;;5112019;28;20198;-74
2021/06/24 08:28:51;;;;;;;11.77;10.57;;;18.70;99.90;;;;;;5112244;28;20209;-74
2021/06/24 08:31:17;;;;;;;12.90;11.40;;;18.70;99.90;;;;;;5112184;28;20206;-74
2021/06/24 08:33:45;;;;;;;11.43;10.20;;;18.70;99.90;;;;;;5112157;28;20206;-74
2021/06/24 08:36:12;;;;;;;12.73;10.63;;;18.70;99.90;;;;;;5112259;28;20205;-74
2021/06/24 08:38:38;;;;;;;13.03;10.43;;;18.80;99.90;;;;;;5112223;27;20202;-74
2021/06/24 08:41:05;;;;;;;11.30;10.20;;;18.60;99.90;;;;;;5112124;27;21005;-74
2021/06/24 08:43:32;;;;;;;13.87;9.60;;;18.50;99.90;;;;;;5111970;28;20602;-73
2021/06/24 08:46:01;;;;;;;12.13;10.20;;;18.60;99.90;;;;;;5112153;28;20222;-73
2021/06/24 08:48:33;;;;;;;12.57;9.87;;;18.60;99.90;;;;;;5112166;28;20255;-74
2021/06/24 08:51:01;;;;;;;16.97;10.43;;;18.70;99.90;;;;;;5112319;28;20202;-74
2021/06/24 08:53:28;;;;;;;12.60;11.10;;;18.80;99.90;;;;;;5112018;28;20267;-74
2021/06/24 08:55:55;;;;;;;13.30;10.27;;;18.80;99.90;;;;;;5111851;28;20202;-74
2021/06/24 08:58:24;;;;;;;14.13;10.83;;;18.80;99.90;;;;;;5111953;28;20206;-73
2021/06/24 09:00:51;;;;;;;12.43;10.90;;;18.90;99.90;;;;;;5112063;28;20229;-74
2021/06/24 09:03:19;;;;;;;16.03;11.00;;;18.80;99.90;;;;;;5111694;28;20549;-74
2021/06/24 09:06:06;;;;;;;13.50;11.27;;;18.80;99.90;;;;;;5111853;28;20316;-74
2021/06/24 09:08:42;;;;;;;14.80;11.07;;;18.90;99.90;;;;;;5111427;28;20205;-74
2021/06/24 09:11:14;;;;;;;14.37;11.10;;;19.00;99.90;;;;;;5111543;27;20238;-74
2021/06/24 09:13:41;;;;;;;15.53;11.00;;;18.90;99.90;;;;;;5111438;28;20330;-74
2021/06/24 09:16:22;;;;;;;17.80;11.77;;;19.00;99.90;;;;;;5111458;28;20904;-74
2021/06/24 09:18:49;;;;;;;12.93;10.37;;;19.00;99.90;;;;;;5111549;28;20190;-74
2021/06/24 09:21:25;;;;;;;11.67;10.47;;;19.00;99.90;;;;;;5111233;28;20301;-74
2021/06/24 09:23:53;;;;;;;13.07;10.77;;;19.10;99.90;;;;;;5111570;28;20201;-74
2021/06/24 09:26:21;;;;;;;15.37;11.33;;;19.20;99.90;;;;;;5111139;28;20455;-74
2021/06/24 09:28:51;;;;;;;16.90;11.23;;;19.20;99.90;;;;;;5110801;28;20206;-74
2021/06/24 09:31:25;;;;;;;14.77;11.47;;;19.30;99.90;;;;;;5110992;28;20206;-74
2021/06/24 09:33:53;;;;;;;13.10;10.27;;;19.30;99.90;;;;;;5111060;28;20211;-74
2021/06/24 09:36:37;;;;;;;11.87;9.83;;;19.30;99.90;;;;;;5110942;28;20628;-74
2021/06/24 09:39:07;;;;;;;16.77;10.53;;;19.30;99.90;;;;;;5110977;28;20190;-73
2021/06/24 09:41:35;;;;;;;14.63;9.77;;;19.30;99.90;;;;;;5110939;28;20210;-74
2021/06/24 09:44:17;;;;;;;12.73;9.43;;;19.20;99.90;;;;;;5110618;28;20664;-74
2021/06/24 09:46:43;;;;;;;11.80;10.10;;;19.30;99.90;;;;;;5110760;28;20226;-74
2021/06/24 09:49:10;;;;;;;13.67;11.03;;;19.40;99.90;;;;;;5110867;28;20251;-73
2021/06/24 09:51:38;;;;;;;14.93;10.30;;;19.40;99.90;;;;;;5110504;28;20977;-74
2021/06/24 09:54:09;;;;;;;12.43;11.10;;;19.50;99.90;;;;;;5110804;28;20206;-74
2021/06/24 09:56:42;;;;;;;16.47;11.87;;;19.60;99.90;;;;;;5110272;28;20230;-74
2021/06/24 09:59:09;;;;;;;12.13;10.90;;;19.60;99.90;;;;;;5110859;28;20552;-74
2021/06/24 10:01:38;;;;;;;15.13;11.97;;;19.80;99.90;;;;;;5110532;27;20210;-74
2021/06/24 10:04:07;;;;;;;15.07;12.67;;;19.80;99.90;;;;;;5110538;28;21092;-74
2021/06/24 10:06:33;;;;;;;16.40;12.37;;;19.90;99.90;;;;;;5110739;28;20213;-74
2021/06/24 10:09:01;;;;;;;15.33;12.03;;;19.80;99.90;;;;;;5110761;28;20210;-74
2021/06/24 10:11:28;;;;;;;14.80;11.77;;;19.90;99.90;;;;;;5110618;28;20229;-74
2021/06/24 10:13:55;;;;;;;12.47;11.13;;;19.80;99.90;;;;;;5110474;28;20206;-74
2021/06/24 10:16:25;;;;;;;12.60;11.30;;;19.90;99.90;;;;;;5110282;28;20205;-74
2021/06/24 10:18:53;;;;;;;18.50;12.67;;;19.90;99.90;;;;;;5110567;28;20194;-73
2021/06/24 10:21:23;;;;;;;15.77;12.77;;;19.80;99.90;;;;;;5110189;27;20290;-74
2021/06/24 10:23:53;;;;;;;17.30;13.30;;;19.90;99.90;;;;;;5110147;28;20259;-74
2021/06/24 10:26:22;;;;;;;16.97;13.93;;;19.70;99.90;;;;;;5110124;28;20213;-74
2021/06/24 10:28:49;;;;;;;20.27;14.00;;;19.60;99.90;;;;;;5110357;27;20255;-74
2021/06/24 10:31:35;;;;;;;17.10;15.27;;;19.70;99.90;;;;;;5110251;28;20284;-73
2021/06/24 10:34:03;;;;;;;21.43;14.73;;;19.70;99.90;;;;;;5110132;28;20233;-74
2021/06/24 10:36:31;;;;;;;17.63;15.73;;;19.90;99.90;;;;;;5109933;28;20198;-74
2021/06/24 10:38:58;;;;;;;17.03;15.10;;;20.00;99.90;;;;;;5110083;28;20213;-74
2021/06/24 10:41:26;;;;;;;15.80;13.20;;;20.10;99.90;;;;;;5108859;28;20674;-74
2021/06/24 10:43:53;;;;;;;17.97;12.83;;;20.10;99.90;;;;;;5109845;28;20304;-74
2021/06/24 10:46:21;;;;;;;17.20;12.90;;;20.10;99.90;;;;;;5109524;28;20218;-73
2021/06/24 10:48:48;;;;;;;13.57;12.10;;;20.20;99.90;;;;;;5109556;28;20230;-74
2021/06/24 10:51:16;;;;;;;13.87;11.83;;;20.30;99.90;;;;;;5109291;28;20202;-74
2021/06/24 10:53:49;;;;;;;12.80;11.43;;;20.40;99.90;;;;;;5109195;28;20793;-74
2021/06/24 10:56:48;;;;;;;16.73;13.17;;;20.40;99.90;;;;;;5109399;28;20245;-74
2021/06/24 10:59:29;;;;;;;15.53;12.67;;;20.50;99.90;;;;;;5109576;28;20213;-74
2021/06/24 11:02:06;;;;;;;13.20;11.90;;;20.50;99.90;;;;;;5109818;28;20201;-74
2021/06/24 11:04:37;;;;;;;13.23;11.87;;;20.60;99.90;;;;;;5109555;28;20186;-73
2021/06/24 11:07:22;;;;;;;12.60;10.33;;;20.60;99.90;;;;;;5109510;28;20190;-74
2021/06/24 11:10:14;;;;;;;11.30;10.20;;;20.60;99.90;;;;;;5109397;28;20198;-74
2021/06/24 11:12:57;;;;;;;11.40;9.77;;;20.50;99.90;;;;;;5109425;28;20372;-74
2021/06/24 11:15:50;;;;;;;11.50;9.70;;;20.50;99.90;;;;;;5109280;28;20198;-74
2021/06/24 11:18:53;;;;;;;12.13;9.93;;;20.40;99.90;;;;;;5109288;28;20208;-74
2021/06/24 11:21:36;;;;;;;13.90;9.53;;;20.40;99.90;;;;;;5109146;28;20224;-73
2021/06/24 11:24:13;;;;;;;10.17;9.17;;;20.30;99.90;;;;;;5096051;28;20202;-73
2021/06/24 11:26:41;;;;;;;10.07;9.20;;;20.30;99.90;;;;;;5109089;28;20190;-74
2021/06/24 11:29:26;;;;;;;10.17;8.90;;;20.30;99.90;;;;;;5109052;28;20210;-74
2021/06/24 11:31:57;;;;;;;10.20;9.10;;;20.40;99.90;;;;;;5109140;28;20200;-73
2021/06/24 11:34:33;;;;;;;10.60;9.13;;;20.40;99.90;;;;;;5109103;28;20194;-74
2021/06/24 11:37:03;;;;;;;9.37;8.37;;;20.40;99.90;;;;;;5108982;28;20198;-74
2021/06/24 11:39:32;;;;;;;11.07;8.20;;;20.40;99.90;;;;;;5108743;28;20202;-74
2021/06/24 11:42:00;;;;;;;8.93;8.07;;;20.40;99.90;;;;;;5108841;28;20259;-73
2021/06/24 11:44:30;;;;;;;8.57;7.60;;;20.50;99.90;;;;;;5108841;28;20210;-74
2021/06/24 11:46:59;;;;;;;8.53;7.73;;;20.50;99.90;;;;;;5108679;28;20230;-74
2021/06/24 11:49:32;;;;;;;8.67;7.67;;;20.60;99.90;;;;;;5108716;28;20270;-74
2021/06/24 12:00:42;;;;;;;7.23;6.53;;;20.60;99.90;;;;;;5108294;28;20220;-73
2021/06/24 12:03:18;;;;;;;10.70;6.40;;;20.60;99.90;;;;;;5108566;28;20541;-74
2021/06/24 12:05:51;;;;;;;6.03;5.53;;;20.80;99.90;;;;;;5108592;28;20201;-74
2021/06/24 12:08:22;;;;;;;7.70;5.63;;;20.90;99.90;;;;;;5108493;28;20752;-74
2021/06/24 12:10:50;;;;;;;7.53;6.37;;;21.00;99.90;;;;;;5108744;28;20309;-74
2021/06/24 12:13:29;;;;;;;7.00;5.50;;;21.10;99.90;;;;;;5108818;28;20206;-75
2021/06/24 12:15:59;;;;;;;8.37;6.00;;;21.10;99.90;;;;;;5108326;28;20277;-72
2021/06/24 12:18:37;;;;;;;6.13;5.57;;;21.20;99.90;;;;;;5108124;28;20744;-72
2021/06/24 12:21:06;;;;;;;6.67;6.03;;;21.20;99.90;;;;;;5108664;28;20214;-74
2021/06/24 12:23:40;;;;;;;6.30;5.70;;;21.20;99.90;;;;;;5108475;28;20212;-74
2021/06/24 12:26:07;;;;;;;8.03;5.93;;;21.30;99.90;;;;;;5108513;28;20244;-74
2021/06/24 12:28:33;;;;;;;6.00;5.10;;;21.20;99.90;;;;;;5108345;28;20608;-74
2021/06/24 12:31:01;;;;;;;5.50;5.00;;;21.20;99.90;;;;;;5108399;28;20206;-74
2021/06/24 12:33:29;;;;;;;6.23;5.63;;;21.20;99.90;;;;;;5108235;28;20397;-74
2021/06/24 12:35:56;;;;;;;5.87;5.00;;;21.20;99.90;;;;;;5108445;28;20213;-73
2021/06/24 12:38:25;;;;;;;7.47;5.57;;;21.20;99.90;;;;;;5108532;28;20275;-74
2021/06/24 12:40:54;;;;;;;5.63;4.77;;;21.40;99.90;;;;;;5108186;28;20782;-74
2021/06/24 12:43:22;;;;;;;6.20;4.93;;;21.30;99.90;;;;;;5108365;28;20668;-74
2021/06/24 12:45:50;;;;;;;4.87;4.10;;;21.50;99.90;;;;;;5108049;28;20222;-74
2021/06/24 12:48:32;;;;;;;5.23;4.40;;;21.70;99.90;;;;;;5108296;28;20277;-74
2021/06/24 12:51:00;;;;;;;5.00;3.80;;;21.80;99.90;;;;;;5108624;28;20206;-74
2021/06/24 12:53:32;;;;;;;4.03;3.73;;;21.90;99.90;;;;;;5108296;28;20251;-74
2021/06/24 12:55:59;;;;;;;4.30;3.93;;;21.90;99.90;;;;;;5107557;28;20546;-74